Time;durP1;ratioP1;P1;durP2;ratioP2;P2;SDS_P1;SDS_P2;PMS_P1;PMS_P2;Temp;Humidity;BMP_temperature;BMP_pressure;BME280_temperature;BME280_humidity;BME280_pressure;Samples;Min_cycle;Max_cycle;Signal;HPM_P1;HPM_P2
2023/02/28 10:17:07;;;;;;;5.95;1.70;;;17.60;86.10;;;;;;5113131;27;20544;-44
2023/02/28 10:19:36;;;;;;;6.75;2.00;;;17.60;87.50;;;;;;5098465;28;20044;-45
2023/02/28 10:22:02;;;;;;;4.50;1.65;;;17.70;88.10;;;;;;5104194;28;20052;-44
2023/02/28 10:24:29;;;;;;;5.97;1.85;;;17.80;88.00;;;;;;5110429;28;20427;-46
2023/02/28 10:26:56;;;;;;;5.72;1.80;;;18.00;87.80;;;;;;5111097;28;20039;-44
2023/02/28 10:29:23;;;;;;;6.13;1.60;;;18.10;87.50;;;;;;5111654;28;20038;-42
2023/02/28 10:31:50;;;;;;;4.90;1.70;;;18.30;87.80;;;;;;5110391;28;20450;-44
2023/02/28 10:34:16;;;;;;;5.13;1.73;;;18.50;86.60;;;;;;5111697;28;20462;-45
2023/02/28 10:36:43;;;;;;;5.45;1.90;;;18.60;86.00;;;;;;5110924;28;20040;-45
2023/02/28 10:39:10;;;;;;;5.28;1.77;;;18.70;85.40;;;;;;5110499;28;20038;-46
2023/02/28 10:41:39;;;;;;;5.13;1.63;;;18.90;85.00;;;;;;5105787;28;20480;-45
2023/02/28 10:44:06;;;;;;;6.50;1.75;;;18.90;84.40;;;;;;5107711;28;20047;-49
2023/02/28 10:46:32;;;;;;;4.47;1.50;;;19.00;84.00;;;;;;5111145;28;20069;-42
2023/02/28 10:48:59;;;;;;;6.53;1.55;;;19.10;84.20;;;;;;5111055;28;20040;-47
2023/02/28 10:51:26;;;;;;;6.00;1.73;;;19.20;83.30;;;;;;5110225;28;20032;-47
2023/02/28 10:53:52;;;;;;;6.20;1.55;;;19.20;82.80;;;;;;5111390;28;20076;-46
2023/02/28 10:56:28;;;;;;;7.25;1.52;;;19.30;82.70;;;;;;5097572;28;21336;-51
2023/02/28 10:58:55;;;;;;;5.22;1.50;;;19.30;82.40;;;;;;5106245;28;20055;-41
2023/02/28 11:01:21;;;;;;;5.20;1.58;;;19.40;81.70;;;;;;5108671;28;20040;-44
2023/02/28 11:03:48;;;;;;;4.35;1.40;;;19.40;82.10;;;;;;5110769;28;20113;-44
2023/02/28 11:06:15;;;;;;;5.63;1.60;;;19.50;81.80;;;;;;5109640;28;20044;-43
2023/02/28 11:08:41;;;;;;;4.38;1.27;;;19.50;81.30;;;;;;5110814;28;20040;-42
2023/02/28 11:11:08;;;;;;;5.28;1.30;;;19.50;81.00;;;;;;5109543;28;20370;-44
2023/02/28 11:13:34;;;;;;;4.55;1.40;;;19.60;80.80;;;;;;5109841;28;20043;-43
2023/02/28 11:16:01;;;;;;;4.43;1.30;;;19.60;80.60;;;;;;5110167;28;20480;-45
2023/02/28 11:18:28;;;;;;;5.38;1.38;;;19.60;80.40;;;;;;5109380;28;20077;-43
2023/02/28 11:20:54;;;;;;;4.68;1.42;;;19.60;80.20;;;;;;5110507;28;20054;-44
2023/02/28 11:23:21;;;;;;;5.05;1.30;;;19.60;80.00;;;;;;5099389;28;20466;-42
2023/02/28 11:25:48;;;;;;;3.55;1.20;;;19.60;79.90;;;;;;5108617;28;20044;-40
2023/02/28 11:28:15;;;;;;;4.85;1.23;;;19.70;79.80;;;;;;5098178;28;20047;-43
2023/02/28 11:30:42;;;;;;;4.15;1.40;;;19.70;79.70;;;;;;5096376;28;20462;-50
2023/02/28 11:33:11;;;;;;;4.32;1.20;;;19.70;79.50;;;;;;5095003;28;20466;-43
2023/02/28 11:35:37;;;;;;;5.05;1.17;;;19.70;79.30;;;;;;5096379;28;20050;-45
2023/02/28 11:38:04;;;;;;;7.47;2.13;;;19.70;79.20;;;;;;5092840;28;20101;-46
2023/02/28 11:40:31;;;;;;;3.28;1.10;;;19.70;79.10;;;;;;5088059;28;20040;-39
2023/02/28 11:42:57;;;;;;;4.72;1.20;;;19.70;79.00;;;;;;5078645;28;20036;-40
2023/02/28 11:45:24;;;;;;;3.25;1.13;;;19.80;79.00;;;;;;5095553;28;20054;-39
2023/02/28 11:47:51;;;;;;;5.22;1.60;;;19.80;79.00;;;;;;5096922;28;20048;-44
2023/02/28 11:50:17;;;;;;;1.98;1.00;;;19.80;78.80;;;;;;5096883;28;20032;-42
2023/02/28 11:52:44;;;;;;;5.18;1.30;;;19.80;78.60;;;;;;5095957;28;20047;-42
2023/02/28 11:55:11;;;;;;;3.45;1.13;;;19.80;78.50;;;;;;5096706;28;20040;-42
2023/02/28 11:57:38;;;;;;;3.83;1.20;;;19.90;78.50;;;;;;5078526;28;20047;-43
2023/02/28 12:00:04;;;;;;;3.40;1.13;;;19.90;78.30;;;;;;5096609;28;20040;-44
2023/02/28 12:02:37;;;;;;;5.40;1.27;;;19.90;78.30;;;;;;5097373;28;20054;-44
2023/02/28 12:05:05;;;;;;;4.25;1.23;;;19.90;78.10;;;;;;5095522;28;20091;-41
2023/02/28 12:07:34;;;;;;;5.40;1.40;;;19.90;78.10;;;;;;5096881;28;20067;-38
2023/02/28 12:10:00;;;;;;;4.13;1.38;;;19.90;78.00;;;;;;5093842;28;20105;-43
2023/02/28 12:12:27;;;;;;;5.47;1.30;;;19.90;77.90;;;;;;5075323;28;20371;-42
2023/02/28 12:14:53;;;;;;;4.38;1.27;;;19.90;77.80;;;;;;5075937;28;20041;-44
2023/02/28 12:17:20;;;;;;;3.10;1.23;;;20.00;77.80;;;;;;5076368;28;20041;-42
2023/02/28 12:19:47;;;;;;;3.85;1.17;;;19.90;77.70;;;;;;5075687;28;20482;-43
2023/02/28 12:22:13;;;;;;;3.20;1.20;;;20.00;77.50;;;;;;5076325;28;20071;-44
2023/02/28 12:24:40;;;;;;;3.63;1.20;;;19.90;77.50;;;;;;5074846;28;20079;-41
2023/02/28 12:27:07;;;;;;;2.88;1.10;;;20.00;77.50;;;;;;5075800;28;20040;-48
2023/02/28 12:29:34;;;;;;;3.80;1.30;;;20.00;77.40;;;;;;5058489;28;20520;-46
2023/02/28 12:32:00;;;;;;;3.55;1.10;;;20.00;77.30;;;;;;5057417;28;20467;-48
2023/02/28 12:34:27;;;;;;;2.47;1.02;;;20.00;77.30;;;;;;5075940;28;20036;-43
2023/02/28 12:36:54;;;;;;;9.25;1.25;;;20.00;77.20;;;;;;5067589;28;20498;-42
2023/02/28 12:39:20;;;;;;;3.40;1.00;;;20.00;77.10;;;;;;5085728;28;20036;-44
2023/02/28 12:41:49;;;;;;;5.03;1.10;;;20.00;77.10;;;;;;5095201;28;20477;-44
2023/02/28 12:44:16;;;;;;;2.55;1.10;;;20.00;77.00;;;;;;5094422;28;20040;-40
2023/02/28 12:46:43;;;;;;;3.30;1.20;;;20.10;77.10;;;;;;5083661;28;20131;-45
2023/02/28 12:49:09;;;;;;;4.10;1.10;;;20.10;77.10;;;;;;5095529;28;20048;-39
2023/02/28 12:51:36;;;;;;;3.83;1.15;;;20.10;76.90;;;;;;5094841;28;20040;-43
2023/02/28 12:54:04;;;;;;;3.47;1.20;;;20.10;76.90;;;;;;5095077;28;20036;-42
2023/02/28 12:56:31;;;;;;;4.45;1.20;;;20.10;76.80;;;;;;5094637;28;20044;-42
2023/02/28 12:58:58;;;;;;;3.88;1.30;;;20.10;76.70;;;;;;5094587;28;20047;-44
2023/02/28 13:01:27;;;;;;;3.65;1.15;;;20.10;76.60;;;;;;5095429;28;20123;-42
2023/02/28 13:03:55;;;;;;;3.10;1.10;;;20.10;76.60;;;;;;5095796;28;20496;-47
2023/02/28 13:06:21;;;;;;;3.65;1.20;;;20.00;76.60;;;;;;5094153;28;20105;-42
2023/02/28 13:08:48;;;;;;;3.72;1.35;;;20.00;76.60;;;;;;5077693;28;20051;-44
2023/02/28 13:11:14;;;;;;;3.70;1.13;;;20.00;76.50;;;;;;5081631;28;20037;-43
2023/02/28 13:13:47;;;;;;;4.85;1.38;;;20.00;76.50;;;;;;5085768;28;20055;-43
2023/02/28 13:16:14;;;;;;;3.92;1.30;;;20.00;76.70;;;;;;5091883;28;20059;-43
2023/02/28 13:18:41;;;;;;;5.70;1.38;;;20.00;76.70;;;;;;5093876;28;20043;-43
2023/02/28 13:21:07;;;;;;;4.28;1.30;;;20.00;76.90;;;;;;5095684;28;20058;-45
2023/02/28 13:23:34;;;;;;;3.63;1.17;;;20.00;76.90;;;;;;5095118;28;20462;-43
2023/02/28 13:26:02;;;;;;;5.25;1.30;;;20.00;76.80;;;;;;5093986;28;20044;-45
2023/02/28 13:28:29;;;;;;;3.38;1.30;;;19.90;76.80;;;;;;5095350;28;20055;-45
2023/02/28 13:30:57;;;;;;;3.40;1.13;;;19.90;76.80;;;;;;5094167;28;20036;-45
2023/02/28 13:33:24;;;;;;;4.88;1.30;;;19.90;76.80;;;;;;5074797;28;20458;-42
2023/02/28 13:35:51;;;;;;;4.28;1.30;;;19.90;76.80;;;;;;5094423;28;20458;-42
2023/02/28 13:38:18;;;;;;;4.55;1.42;;;19.90;76.80;;;;;;5093574;28;20047;-41
2023/02/28 13:40:44;;;;;;;3.83;1.30;;;19.90;76.90;;;;;;5094428;28;20401;-44
2023/02/28 13:43:11;;;;;;;5.90;1.40;;;19.90;76.90;;;;;;5094395;28;20104;-41
2023/02/28 13:45:38;;;;;;;4.38;1.35;;;19.90;76.90;;;;;;5092786;28;20047;-42
2023/02/28 13:48:05;;;;;;;4.18;1.20;;;19.90;76.90;;;;;;5076130;28;20434;-45
2023/02/28 13:50:32;;;;;;;2.75;1.10;;;19.90;76.90;;;;;;5073618;28;20032;-46
2023/02/28 13:52:58;;;;;;;4.07;1.20;;;19.90;76.90;;;;;;5073225;28;20392;-45
2023/02/28 13:55:25;;;;;;;3.42;1.10;;;20.00;76.90;;;;;;5056073;28;20051;-45
2023/02/28 13:57:52;;;;;;;4.15;1.20;;;20.00;76.90;;;;;;5073273;28;20036;-42
2023/02/28 14:00:18;;;;;;;2.88;1.10;;;20.00;76.90;;;;;;5074077;28;20036;-44
2023/02/28 14:02:45;;;;;;;3.40;1.15;;;20.00;76.90;;;;;;5074004;28;20098;-42
2023/02/28 14:05:12;;;;;;;3.58;1.30;;;20.00;76.90;;;;;;5072465;28;20044;-42
2023/02/28 14:07:43;;;;;;;3.70;1.20;;;20.00;76.90;;;;;;5073916;28;20134;-41
2023/02/28 14:10:10;;;;;;;4.15;1.30;;;20.00;76.90;;;;;;5073843;28;20040;-41
2023/02/28 14:12:37;;;;;;;4.30;1.10;;;20.00;76.80;;;;;;5073086;28;20378;-45
2023/02/28 14:15:03;;;;;;;4.15;1.13;;;20.00;76.80;;;;;;5073089;28;20056;-45
2023/02/28 14:17:30;;;;;;;3.72;1.10;;;20.00;76.80;;;;;;5056020;28;20063;-43
2023/02/28 14:19:56;;;;;;;4.32;1.10;;;20.00;76.60;;;;;;5068144;28;20162;-42
2023/02/28 14:22:23;;;;;;;4.03;1.30;;;20.10;77.00;;;;;;5054544;28;20114;-42
2023/02/28 14:24:50;;;;;;;5.07;1.10;;;20.10;77.00;;;;;;5068482;28;20067;-41
2023/02/28 14:27:17;;;;;;;3.88;1.20;;;20.20;77.10;;;;;;5073658;28;20045;-43
2023/02/28 14:29:44;;;;;;;3.60;1.27;;;20.20;77.20;;;;;;5073988;28;20049;-41
2023/02/28 14:32:11;;;;;;;3.67;1.15;;;20.20;77.30;;;;;;5072693;28;20496;-44
2023/02/28 14:34:37;;;;;;;3.58;1.10;;;20.20;77.20;;;;;;5055489;28;20098;-44
2023/02/28 14:37:04;;;;;;;2.47;1.00;;;20.30;77.30;;;;;;5053659;28;20059;-44
2023/02/28 14:39:31;;;;;;;4.15;1.25;;;20.30;77.30;;;;;;5051915;28;20045;-40
2023/02/28 14:42:04;;;;;;;2.53;1.02;;;20.30;77.20;;;;;;5053513;28;20064;-47
2023/02/28 14:44:31;;;;;;;3.60;1.08;;;20.30;78.00;;;;;;5052450;28;20537;-44
2023/02/28 14:46:58;;;;;;;3.58;1.20;;;20.40;77.30;;;;;;5053245;28;20553;-40
2023/02/28 14:49:24;;;;;;;3.25;0.98;;;20.40;77.10;;;;;;5053762;28;20052;-40
2023/02/28 14:51:51;;;;;;;3.67;1.40;;;20.40;77.00;;;;;;5052342;28;20463;-41
2023/02/28 14:54:18;;;;;;;3.08;1.05;;;20.40;76.90;;;;;;5053420;28;20037;-39
2023/02/28 14:56:44;;;;;;;5.03;1.20;;;20.40;76.90;;;;;;5062201;28;20037;-39
2023/02/28 14:59:11;;;;;;;4.80;1.20;;;20.40;76.80;;;;;;5072127;28;20045;-39
2023/02/28 15:01:37;;;;;;;3.47;1.05;;;20.30;76.80;;;;;;5073240;28;20341;-41
2023/02/28 15:04:04;;;;;;;3.90;1.02;;;20.40;76.90;;;;;;5075483;28;20044;-40
2023/02/28 15:06:31;;;;;;;5.28;1.40;;;20.40;76.90;;;;;;5055958;28;20039;-40
2023/02/28 15:08:58;;;;;;;2.78;1.10;;;20.40;76.90;;;;;;5053260;28;20051;-39
2023/02/28 15:11:24;;;;;;;5.38;1.20;;;20.40;76.90;;;;;;5070657;28;20060;-39
2023/02/28 15:13:51;;;;;;;6.18;1.42;;;20.30;76.80;;;;;;5077137;28;20040;-39
2023/02/28 15:16:18;;;;;;;2.92;1.10;;;20.40;76.80;;;;;;5075784;28;20065;-39
2023/02/28 15:18:44;;;;;;;4.97;1.40;;;20.40;77.00;;;;;;5075850;28;20492;-41
2023/02/28 15:21:11;;;;;;;3.67;1.20;;;20.40;76.80;;;;;;5076983;28;20056;-39
2023/02/28 15:23:37;;;;;;;6.45;1.42;;;20.40;76.80;;;;;;5076980;28;20044;-39
2023/02/28 15:26:04;;;;;;;4.68;1.40;;;20.40;76.80;;;;;;5075632;28;20481;-40
2023/02/28 15:28:31;;;;;;;5.78;1.60;;;20.40;76.80;;;;;;5076746;28;20032;-41
2023/02/28 15:30:57;;;;;;;6.43;1.77;;;20.30;76.70;;;;;;5076074;28;20032;-41
2023/02/28 15:33:24;;;;;;;5.03;1.40;;;20.40;76.80;;;;;;5076725;28;20041;-40
2023/02/28 15:35:51;;;;;;;5.72;1.60;;;20.40;76.80;;;;;;5076281;28;20052;-40
2023/02/28 15:38:18;;;;;;;5.13;1.40;;;20.40;76.70;;;;;;5075894;28;20058;-41
2023/02/28 15:40:44;;;;;;;5.05;1.52;;;20.40;76.70;;;;;;5076512;28;20051;-40
2023/02/28 15:43:11;;;;;;;6.30;1.60;;;20.40;76.70;;;;;;5059056;28;20041;-41
2023/02/28 15:45:40;;;;;;;6.25;1.77;;;20.40;76.60;;;;;;5075336;28;20105;-41
2023/02/28 15:48:07;;;;;;;8.57;1.73;;;20.40;76.60;;;;;;5076757;28;20362;-41
2023/02/28 15:50:40;;;;;;;4.88;1.30;;;20.40;76.60;;;;;;5076741;28;20079;-39
2023/02/28 15:53:06;;;;;;;6.07;1.63;;;20.40;76.60;;;;;;5076139;28;20500;-39
2023/02/28 15:55:33;;;;;;;5.50;1.67;;;20.40;76.80;;;;;;5076412;28;20045;-41
2023/02/28 15:57:59;;;;;;;6.85;1.38;;;20.40;76.80;;;;;;5075986;28;20052;-41
2023/02/28 16:00:26;;;;;;;5.63;1.50;;;20.40;76.90;;;;;;5059325;28;20049;-39
2023/02/28 16:02:53;;;;;;;6.03;1.50;;;20.50;76.80;;;;;;5076629;28;20059;-41
2023/02/28 16:05:21;;;;;;;4.90;1.40;;;20.50;76.70;;;;;;5074971;28;20054;-39
2023/02/28 16:07:48;;;;;;;7.05;1.50;;;20.50;76.80;;;;;;5073623;28;20051;-41
2023/02/28 16:10:15;;;;;;;5.90;1.40;;;20.50;76.80;;;;;;5075647;28;20044;-39
2023/02/28 16:12:42;;;;;;;5.13;1.30;;;20.60;76.80;;;;;;5074866;28;20101;-41
2023/02/28 16:15:08;;;;;;;5.57;1.30;;;20.60;76.80;;;;;;5075345;28;20103;-42
2023/02/28 16:17:35;;;;;;;6.10;1.33;;;20.60;76.70;;;;;;5074482;28;20048;-40
2023/02/28 16:20:02;;;;;;;5.53;1.40;;;20.70;76.70;;;;;;5075806;28;20102;-40
2023/02/28 16:22:30;;;;;;;5.20;1.67;;;20.70;76.50;;;;;;5075751;28;20037;-38
2023/02/28 16:24:57;;;;;;;5.35;1.40;;;20.70;76.40;;;;;;5074467;28;20114;-41
2023/02/28 16:27:23;;;;;;;4.35;1.30;;;20.80;76.40;;;;;;5075464;28;20051;-42
2023/02/28 16:29:50;;;;;;;5.45;1.38;;;20.80;76.20;;;;;;5075421;28;20463;-40
2023/02/28 16:32:17;;;;;;;4.55;1.30;;;20.80;76.20;;;;;;5074512;28;20032;-40
2023/02/28 16:34:43;;;;;;;6.03;1.52;;;20.80;76.10;;;;;;5075337;28;20041;-41
2023/02/28 16:37:10;;;;;;;3.67;1.20;;;20.80;76.00;;;;;;5075421;28;20059;-40
2023/02/28 16:39:37;;;;;;;4.65;1.33;;;20.80;75.90;;;;;;5074617;28;20037;-41
2023/02/28 16:42:04;;;;;;;4.55;1.40;;;20.80;75.90;;;;;;5075532;28;20063;-41
2023/02/28 16:44:30;;;;;;;4.70;1.13;;;20.80;75.70;;;;;;5057305;28;20040;-40
2023/02/28 16:46:57;;;;;;;4.03;1.20;;;20.90;75.80;;;;;;5075237;28;20467;-39
2023/02/28 16:49:24;;;;;;;4.70;1.50;;;20.90;75.80;;;;;;5075111;28;20043;-40
2023/02/28 16:51:50;;;;;;;4.43;1.45;;;20.90;75.70;;;;;;5056473;28;20068;-39
2023/02/28 16:54:17;;;;;;;3.97;1.30;;;20.90;75.70;;;;;;5074706;28;20036;-40
2023/02/28 16:56:44;;;;;;;3.30;1.05;;;20.90;75.60;;;;;;5075125;28;20352;-40
2023/02/28 16:59:11;;;;;;;4.55;1.30;;;20.90;75.50;;;;;;5074037;28;20060;-40
2023/02/28 17:01:37;;;;;;;3.63;1.13;;;20.90;76.10;;;;;;5075413;28;20040;-40
2023/02/28 17:04:04;;;;;;;3.28;1.13;;;20.90;75.40;;;;;;5074069;28;20079;-39
2023/02/28 17:06:31;;;;;;;3.47;1.10;;;20.90;75.20;;;;;;5052508;28;20128;-40
2023/02/28 17:08:59;;;;;;;3.85;1.38;;;20.90;75.40;;;;;;5053028;28;20494;-41
2023/02/28 17:11:25;;;;;;;4.05;1.20;;;20.90;75.40;;;;;;5066621;28;20040;-39
2023/02/28 17:13:53;;;;;;;2.90;1.15;;;20.90;75.40;;;;;;5072474;28;20047;-40
2023/02/28 17:16:20;;;;;;;4.22;1.25;;;20.90;75.40;;;;;;5071631;28;20905;-42
2023/02/28 17:18:47;;;;;;;4.50;1.42;;;20.90;75.30;;;;;;5071072;28;20064;-39
2023/02/28 17:21:13;;;;;;;6.15;1.67;;;20.90;75.40;;;;;;5071991;28;20091;-39
2023/02/28 17:23:40;;;;;;;4.03;1.23;;;20.90;75.30;;;;;;5072056;28;20048;-38
2023/02/28 17:26:07;;;;;;;4.70;1.20;;;20.90;75.30;;;;;;5070526;28;20052;-38
2023/02/28 17:28:33;;;;;;;3.70;1.13;;;20.90;75.30;;;;;;5071938;28;20672;-40
2023/02/28 17:31:00;;;;;;;3.60;1.08;;;20.90;75.20;;;;;;5071113;28;20048;-40
2023/02/28 17:33:27;;;;;;;3.88;1.30;;;20.90;75.30;;;;;;5072252;28;20051;-40
2023/02/28 17:35:54;;;;;;;3.92;1.08;;;20.90;75.30;;;;;;5072681;28;20047;-40
2023/02/28 17:38:22;;;;;;;3.20;1.10;;;20.90;75.30;;;;;;5070477;28;20422;-39
2023/02/28 17:40:49;;;;;;;2.95;1.08;;;20.90;75.20;;;;;;5072306;28;20052;-41
2023/02/28 17:43:15;;;;;;;3.20;1.10;;;20.90;75.20;;;;;;5072395;28;20048;-40
2023/02/28 17:45:42;;;;;;;2.53;1.00;;;20.90;75.20;;;;;;5071265;28;20056;-38
2023/02/28 17:48:09;;;;;;;2.90;1.10;;;20.90;75.20;;;;;;5072435;28;20421;-41
2023/02/28 17:50:36;;;;;;;2.83;1.00;;;20.90;75.20;;;;;;5072495;28;20044;-40
2023/02/28 17:53:02;;;;;;;4.43;1.20;;;20.90;75.20;;;;;;5071241;28;20488;-38
2023/02/28 17:55:29;;;;;;;3.80;1.15;;;20.90;75.10;;;;;;5072036;28;20040;-40
2023/02/28 17:57:55;;;;;;;3.65;1.17;;;20.90;75.10;;;;;;5071650;28;20052;-41
2023/02/28 18:00:23;;;;;;;3.15;1.10;;;20.90;75.10;;;;;;5072447;28;20064;-41
2023/02/28 18:02:50;;;;;;;4.13;1.10;;;20.90;75.10;;;;;;5072375;28;20064;-39
2023/02/28 18:05:17;;;;;;;4.10;1.30;;;20.90;75.00;;;;;;5070729;28;20049;-40
2023/02/28 18:07:44;;;;;;;3.63;1.20;;;20.90;75.00;;;;;;5071947;28;20044;-38
2023/02/28 18:10:10;;;;;;;4.22;1.10;;;20.90;75.00;;;;;;5072182;28;20067;-39
2023/02/28 18:12:37;;;;;;;3.03;1.00;;;20.90;75.00;;;;;;5071364;28;20526;-40
2023/02/28 18:15:04;;;;;;;2.08;0.90;;;20.90;75.00;;;;;;5071668;28;20066;-38
2023/02/28 18:17:31;;;;;;;4.55;1.10;;;20.90;74.90;;;;;;5071132;28;20067;-40
2023/02/28 18:19:58;;;;;;;2.72;1.00;;;20.90;74.90;;;;;;5054273;28;20387;-39
2023/02/28 18:22:25;;;;;;;3.22;1.25;;;20.90;75.00;;;;;;5072056;28;20064;-40
2023/02/28 18:24:51;;;;;;;6.95;1.33;;;20.90;74.90;;;;;;5071168;28;20041;-40
2023/02/28 18:27:18;;;;;;;2.65;1.08;;;20.90;74.90;;;;;;5072315;28;20048;-42
2023/02/28 18:29:45;;;;;;;3.58;1.13;;;20.90;74.90;;;;;;5071692;28;20044;-39
2023/02/28 18:32:11;;;;;;;2.92;1.08;;;20.80;74.80;;;;;;5053055;28;20045;-39
